Time;durP1;ratioP1;P1;durP2;ratioP2;P2;SDS_P1;SDS_P2;PMS_P1;PMS_P2;Temp;Humidity;BMP_temperature;BMP_pressure;BME280_temperature;BME280_humidity;BME280_pressure;Samples;Min_cycle;Max_cycle;Signal;HPM_P1;HPM_P2
2022/11/22 00:00:15;;;;;;;1.95;0.95;;;13.40;60.80;;;;;;5092575;28;46745;-89
2022/11/22 00:02:42;;;;;;;0.80;0.80;;;13.40;60.80;;;;;;5093713;27;45142;-89
2022/11/22 00:05:09;;;;;;;0.77;0.77;;;13.40;60.80;;;;;;5092780;28;44589;-88
2022/11/22 00:07:37;;;;;;;1.33;0.90;;;13.40;60.90;;;;;;5093196;28;45351;-88
2022/11/22 00:10:05;;;;;;;0.75;0.73;;;13.40;60.90;;;;;;5092143;28;45441;-89
2022/11/22 00:12:32;;;;;;;1.50;0.85;;;13.40;60.80;;;;;;5092859;28;45190;-88
2022/11/22 00:14:59;;;;;;;1.02;0.93;;;13.40;60.90;;;;;;5092850;28;44633;-89
2022/11/22 00:17:26;;;;;;;0.70;0.70;;;13.40;60.90;;;;;;5092997;27;45391;-89
2022/11/22 00:19:53;;;;;;;0.63;0.63;;;13.40;60.80;;;;;;5092482;28;46958;-90
2022/11/22 00:22:20;;;;;;;0.80;0.80;;;13.40;60.90;;;;;;5092079;28;45296;-88
2022/11/22 00:24:50;;;;;;;0.95;0.82;;;13.40;60.90;;;;;;5092458;28;45193;-88
2022/11/22 00:27:17;;;;;;;0.88;0.88;;;13.40;60.90;;;;;;5091075;28;45313;-88
2022/11/22 00:29:43;;;;;;;1.17;0.77;;;13.40;60.90;;;;;;5091351;28;45465;-88
2022/11/22 00:32:10;;;;;;;0.68;0.68;;;13.40;60.90;;;;;;5091259;27;45252;-89
2022/11/22 00:34:37;;;;;;;0.60;0.60;;;13.40;60.90;;;;;;5091931;28;45241;-89
2022/11/22 00:37:04;;;;;;;1.30;0.70;;;13.40;60.90;;;;;;5091334;28;45217;-89
2022/11/22 00:39:31;;;;;;;0.70;0.70;;;13.40;60.90;;;;;;5091434;28;45590;-88
2022/11/22 00:41:59;;;;;;;1.00;0.90;;;13.40;60.90;;;;;;5090233;28;45297;-89
2022/11/22 00:44:26;;;;;;;0.98;0.85;;;13.40;60.80;;;;;;5091067;28;45182;-88
2022/11/22 00:46:53;;;;;;;0.80;0.80;;;13.40;60.90;;;;;;5091100;28;45225;-89
2022/11/22 00:49:20;;;;;;;0.77;0.70;;;13.40;60.90;;;;;;5091331;28;46902;-89
2022/11/22 00:51:47;;;;;;;1.58;0.90;;;13.40;60.90;;;;;;5091320;28;44671;-88
2022/11/22 00:54:14;;;;;;;0.85;0.73;;;13.40;60.90;;;;;;5091926;28;45369;-88
2022/11/22 00:56:41;;;;;;;1.25;0.93;;;13.40;60.90;;;;;;5091513;28;45444;-89
2022/11/22 00:59:09;;;;;;;1.17;1.00;;;13.40;60.90;;;;;;5090820;28;45249;-89
2022/11/22 01:01:36;;;;;;;0.70;0.70;;;13.40;61.00;;;;;;5090710;28;45447;-90
2022/11/22 01:04:03;;;;;;;0.95;0.90;;;13.40;60.90;;;;;;5090572;28;45426;-88
2022/11/22 01:06:29;;;;;;;0.75;0.70;;;13.40;60.90;;;;;;5090812;28;45422;-89
2022/11/22 01:08:56;;;;;;;0.73;0.60;;;13.40;60.90;;;;;;5090805;28;45210;-87
2022/11/22 01:11:23;;;;;;;0.88;0.85;;;13.40;61.00;;;;;;5088872;28;45244;-89
2022/11/22 01:13:50;;;;;;;0.73;0.70;;;13.40;60.90;;;;;;5089754;28;45218;-88
2022/11/22 01:16:18;;;;;;;0.70;0.70;;;13.40;60.90;;;;;;5089672;28;45314;-89
2022/11/22 01:18:45;;;;;;;0.88;0.80;;;13.40;60.90;;;;;;5090026;28;46398;-88
2022/11/22 01:21:12;;;;;;;0.88;0.60;;;13.40;60.90;;;;;;5090195;28;45231;-87
2022/11/22 01:23:39;;;;;;;1.30;0.70;;;13.40;61.00;;;;;;5089830;28;45182;-88
2022/11/22 01:26:12;;;;;;;1.08;0.82;;;13.40;61.00;;;;;;5089596;28;44924;-89
2022/11/22 01:28:39;;;;;;;1.83;0.90;;;13.40;61.00;;;;;;5091165;27;45473;-89
2022/11/22 01:31:06;;;;;;;0.50;0.50;;;13.40;61.00;;;;;;5093061;28;45351;-87
2022/11/22 01:33:34;;;;;;;0.93;0.90;;;13.40;61.00;;;;;;5092408;28;45237;-90
2022/11/22 01:36:01;;;;;;;0.80;0.80;;;13.40;61.00;;;;;;5093026;28;45188;-90
2022/11/22 01:38:28;;;;;;;0.70;0.70;;;13.40;61.00;;;;;;5092556;28;45818;-89
2022/11/22 01:40:55;;;;;;;0.50;0.50;;;13.40;60.90;;;;;;5093015;28;45257;-90
2022/11/22 01:43:22;;;;;;;0.77;0.77;;;13.40;61.00;;;;;;5092956;28;45304;-89
2022/11/22 01:45:51;;;;;;;0.88;0.80;;;13.40;61.00;;;;;;5093219;28;45284;-88
2022/11/22 01:48:22;;;;;;;1.13;0.80;;;13.30;61.00;;;;;;5093393;28;45655;-88
2022/11/22 01:50:51;;;;;;;0.60;0.60;;;13.30;61.00;;;;;;5093340;28;44879;-88
2022/11/22 01:53:20;;;;;;;0.60;0.60;;;13.30;60.90;;;;;;5093254;28;44706;-88
2022/11/22 01:55:47;;;;;;;0.85;0.70;;;13.30;60.90;;;;;;5092299;28;45328;-88
2022/11/22 01:58:14;;;;;;;0.88;0.73;;;13.30;61.00;;;;;;5092645;28;46667;-88
2022/11/22 02:00:41;;;;;;;0.75;0.75;;;13.30;61.00;;;;;;5093020;28;45295;-88
2022/11/22 02:03:08;;;;;;;0.95;0.70;;;13.30;60.90;;;;;;5092456;28;45275;-88
2022/11/22 02:05:35;;;;;;;1.20;0.73;;;13.30;61.60;;;;;;5093484;28;45241;-88
2022/11/22 02:08:05;;;;;;;0.47;0.47;;;13.30;60.90;;;;;;5092183;28;46617;-88
2022/11/22 02:10:34;;;;;;;0.77;0.70;;;13.30;60.90;;;;;;5092781;28;45228;-88
2022/11/22 02:13:01;;;;;;;0.60;0.60;;;13.30;60.90;;;;;;5091922;28;45484;-89
2022/11/22 02:15:28;;;;;;;1.10;0.70;;;13.30;61.00;;;;;;5092879;28;45284;-87
2022/11/22 02:17:56;;;;;;;0.65;0.65;;;13.30;61.00;;;;;;5092557;28;45740;-89
2022/11/22 02:20:23;;;;;;;1.55;0.90;;;13.30;61.00;;;;;;5092427;28;45245;-89
2022/11/22 02:22:53;;;;;;;0.90;0.80;;;13.30;61.00;;;;;;5092097;28;45275;-89
2022/11/22 02:25:25;;;;;;;1.35;0.73;;;13.30;61.00;;;;;;5091882;28;45383;-89
2022/11/22 02:27:53;;;;;;;0.50;0.50;;;13.30;61.00;;;;;;5091625;27;45365;-87
2022/11/22 02:30:20;;;;;;;2.63;0.50;;;13.30;61.00;;;;;;5091865;28;45308;-89
2022/11/22 02:32:47;;;;;;;1.80;0.60;;;13.30;61.00;;;;;;5091622;28;45193;-88
2022/11/22 02:35:18;;;;;;;2.15;0.68;;;13.30;61.00;;;;;;5092323;28;45185;-88
2022/11/22 02:37:45;;;;;;;0.55;0.55;;;13.30;61.00;;;;;;5091695;28;46522;-87
2022/11/22 02:40:13;;;;;;;0.80;0.52;;;13.30;61.00;;;;;;5091349;27;45307;-88
2022/11/22 02:42:40;;;;;;;1.38;0.70;;;13.30;61.00;;;;;;5091485;28;45243;-88
2022/11/22 02:45:09;;;;;;;0.57;0.57;;;13.30;61.00;;;;;;5091628;28;45291;-88
2022/11/22 02:47:36;;;;;;;1.50;0.70;;;13.30;61.00;;;;;;5091874;28;45498;-88
2022/11/22 02:50:03;;;;;;;0.85;0.80;;;13.30;61.00;;;;;;5091508;28;45217;-87
2022/11/22 02:52:30;;;;;;;0.90;0.88;;;13.30;61.00;;;;;;5091479;28;45244;-89
2022/11/22 02:54:57;;;;;;;0.63;0.52;;;13.30;61.00;;;;;;5091773;28;45335;-89
2022/11/22 02:57:24;;;;;;;0.57;0.57;;;13.30;61.00;;;;;;5091943;28;45313;-88
2022/11/22 02:59:51;;;;;;;0.40;0.40;;;13.30;61.00;;;;;;5090424;28;45343;-87
2022/11/22 03:02:19;;;;;;;0.55;0.50;;;13.30;61.00;;;;;;5090700;28;45256;-87
2022/11/22 03:04:47;;;;;;;0.77;0.60;;;13.30;61.00;;;;;;5091391;28;45259;-89
2022/11/22 03:07:14;;;;;;;1.48;0.73;;;13.30;61.00;;;;;;5090870;28;45386;-88
2022/11/22 03:09:40;;;;;;;0.65;0.65;;;13.30;61.00;;;;;;5091102;28;45353;-88
2022/11/22 03:12:07;;;;;;;0.93;0.60;;;13.30;61.00;;;;;;5091001;28;45212;-86
2022/11/22 03:14:34;;;;;;;1.10;0.70;;;13.30;61.00;;;;;;5090689;28;45160;-89
2022/11/22 03:17:01;;;;;;;0.50;0.50;;;13.20;61.00;;;;;;5090717;28;46934;-88
2022/11/22 03:19:29;;;;;;;1.42;0.75;;;13.30;61.00;;;;;;5090640;28;45296;-88
2022/11/22 03:21:56;;;;;;;0.43;0.43;;;13.20;61.00;;;;;;5090691;28;45291;-90
2022/11/22 03:24:23;;;;;;;0.50;0.50;;;13.20;61.00;;;;;;5091196;28;45449;-88
2022/11/22 03:26:50;;;;;;;0.98;0.65;;;13.20;61.00;;;;;;5090270;28;46369;-87
2022/11/22 03:29:17;;;;;;;0.60;0.60;;;13.20;61.00;;;;;;5090708;28;45326;-88
2022/11/22 03:31:44;;;;;;;0.55;0.50;;;13.20;61.80;;;;;;5091081;28;45288;-88
2022/11/22 03:34:11;;;;;;;0.80;0.80;;;13.20;61.00;;;;;;5090233;28;45451;-88
2022/11/22 03:36:39;;;;;;;0.70;0.70;;;13.20;61.00;;;;;;5090282;28;45751;-88
2022/11/22 03:39:06;;;;;;;0.45;0.45;;;13.20;61.10;;;;;;5091183;28;45194;-88
2022/11/22 03:41:33;;;;;;;0.60;0.57;;;13.20;61.10;;;;;;5091479;28;45418;-88
2022/11/22 03:44:00;;;;;;;0.63;0.60;;;13.20;61.20;;;;;;5091442;28;45269;-88
2022/11/22 03:46:27;;;;;;;0.50;0.50;;;13.20;61.20;;;;;;5090301;28;46745;-88
2022/11/22 03:48:54;;;;;;;0.60;0.60;;;13.20;61.20;;;;;;5091012;28;45223;-88
2022/11/22 03:51:21;;;;;;;0.40;0.40;;;13.10;61.20;;;;;;5090117;27;45216;-88
2022/11/22 03:53:50;;;;;;;1.55;0.65;;;13.10;61.20;;;;;;5090436;28;45513;-86
2022/11/22 03:56:16;;;;;;;1.17;0.50;;;13.10;61.20;;;;;;5089187;28;46541;-88
2022/11/22 03:58:43;;;;;;;0.85;0.68;;;13.10;61.20;;;;;;5090410;28;45209;-89
2022/11/22 04:01:10;;;;;;;0.60;0.60;;;13.10;61.20;;;;;;5089558;28;45222;-88
2022/11/22 04:03:37;;;;;;;0.52;0.50;;;13.10;61.20;;;;;;5090667;28;45324;-87
2022/11/22 04:06:04;;;;;;;1.40;0.50;;;13.10;61.10;;;;;;5089027;28;46549;-87
2022/11/22 04:08:31;;;;;;;0.60;0.60;;;13.10;61.10;;;;;;5089937;28;45292;-88
2022/11/22 04:10:59;;;;;;;0.80;0.65;;;13.10;61.10;;;;;;5090176;28;45269;-88
2022/11/22 04:15:05;;;;;;;0.65;0.50;;;13.10;61.10;;;;;;5089737;28;45159;-87
2022/11/22 04:16:12;;;;;;;0.50;0.50;;;13.10;61.10;;;;;;5089427;28;45613;-87
2022/11/22 04:18:39;;;;;;;1.63;0.80;;;13.10;61.10;;;;;;5090315;28;45261;-89
2022/11/22 04:25:12;;;;;;;0.70;0.63;;;13.10;61.10;;;;;;5087305;28;45262;-87
2022/11/22 04:26:37;;;;;;;2.08;0.55;;;13.10;61.20;;;;;;5088679;28;45447;-87
2022/11/22 04:29:04;;;;;;;0.68;0.50;;;13.10;61.20;;;;;;5089587;28;45188;-88
2022/11/22 04:34:12;;;;;;;0.68;0.68;;;13.10;61.20;;;;;;5055653;28;45238;-88
2022/11/22 04:36:38;;;;;;;1.05;0.85;;;13.10;61.30;;;;;;5089201;28;45251;-87
2022/11/22 04:39:05;;;;;;;0.60;0.60;;;13.10;61.20;;;;;;5089411;28;45235;-88
2022/11/22 04:41:32;;;;;;;0.75;0.70;;;13.10;61.30;;;;;;5089211;28;45340;-89
2022/11/22 04:46:45;;;;;;;2.00;0.70;;;13.00;61.20;;;;;;5086673;28;45733;-88
2022/11/22 04:49:11;;;;;;;0.52;0.52;;;13.00;61.20;;;;;;5089423;28;45299;-88
2022/11/22 04:54:22;;;;;;;0.40;0.40;;;13.00;61.20;;;;;;5090364;28;45217;-88
2022/11/22 04:56:49;;;;;;;0.47;0.47;;;13.00;61.20;;;;;;5089385;28;45447;-88
2022/11/22 04:59:17;;;;;;;0.85;0.55;;;13.10;61.20;;;;;;5089711;28;45268;-87
2022/11/22 05:01:44;;;;;;;1.98;0.55;;;13.10;61.20;;;;;;5089570;28;45264;-87
2022/11/22 05:04:11;;;;;;;2.75;0.85;;;13.10;61.20;;;;;;5088159;28;45510;-89
2022/11/22 05:06:38;;;;;;;0.88;0.50;;;13.10;61.20;;;;;;5088740;28;45688;-88
2022/11/22 05:09:05;;;;;;;1.77;0.80;;;13.00;61.10;;;;;;5088525;28;45182;-87
2022/11/22 05:11:33;;;;;;;0.43;0.40;;;13.10;61.20;;;;;;5088955;28;45426;-88
2022/11/22 05:14:00;;;;;;;0.63;0.60;;;13.00;61.20;;;;;;5088752;28;45510;-88
2022/11/22 05:16:28;;;;;;;0.50;0.50;;;13.00;61.20;;;;;;5088387;28;45290;-88
2022/11/22 05:18:58;;;;;;;1.27;0.60;;;13.00;61.20;;;;;;5087987;28;45185;-88
2022/11/22 05:21:26;;;;;;;0.90;0.73;;;13.00;61.20;;;;;;5087828;28;44785;-87
2022/11/22 05:23:54;;;;;;;0.77;0.70;;;13.00;61.20;;;;;;5089394;28;45182;-88
2022/11/22 05:26:21;;;;;;;1.75;0.60;;;13.00;61.10;;;;;;5088545;28;46874;-87
2022/11/22 05:28:48;;;;;;;1.23;0.75;;;13.00;61.10;;;;;;5088472;27;45289;-88
2022/11/22 05:31:16;;;;;;;0.55;0.52;;;13.00;61.20;;;;;;5088283;28;45279;-88
2022/11/22 05:33:45;;;;;;;1.55;0.50;;;13.00;61.20;;;;;;5088836;28;45177;-88
2022/11/22 05:36:12;;;;;;;0.50;0.40;;;13.00;61.30;;;;;;5089868;28;45329;-88
2022/11/22 05:38:39;;;;;;;1.23;0.60;;;13.00;61.40;;;;;;5088258;28;45308;-89
2022/11/22 05:41:07;;;;;;;0.82;0.55;;;13.00;61.40;;;;;;5087986;28;45276;-88
2022/11/22 05:43:34;;;;;;;0.98;0.55;;;13.00;61.30;;;;;;5088294;28;45197;-88
2022/11/22 05:46:08;;;;;;;2.33;0.70;;;13.00;61.30;;;;;;5087616;28;45933;-88
2022/11/22 05:48:35;;;;;;;0.70;0.43;;;13.00;61.30;;;;;;5087456;28;45274;-88
2022/11/22 05:51:05;;;;;;;2.40;0.60;;;13.00;61.30;;;;;;5087948;28;45240;-88
2022/11/22 05:53:32;;;;;;;1.58;0.70;;;13.00;61.30;;;;;;5088199;28;45269;-88
2022/11/22 05:56:04;;;;;;;1.73;0.68;;;13.00;61.20;;;;;;5088031;28;45342;-88
2022/11/22 05:58:30;;;;;;;0.60;0.60;;;13.00;61.20;;;;;;5088300;28;45283;-88
2022/11/22 06:01:01;;;;;;;0.60;0.60;;;13.00;61.20;;;;;;5088299;28;45294;-87
2022/11/22 06:03:28;;;;;;;0.55;0.55;;;13.00;61.20;;;;;;5088672;28;45462;-88
2022/11/22 06:05:55;;;;;;;0.73;0.70;;;13.00;61.20;;;;;;5088586;28;45526;-87
2022/11/22 06:08:23;;;;;;;0.47;0.47;;;13.00;61.20;;;;;;5089337;28;44749;-87
2022/11/22 06:10:50;;;;;;;1.02;0.70;;;13.00;61.20;;;;;;5089487;28;45223;-87
2022/11/22 06:13:17;;;;;;;2.00;0.63;;;13.00;61.30;;;;;;5088358;28;45171;-88
2022/11/22 06:15:44;;;;;;;0.95;0.50;;;12.90;61.30;;;;;;5091706;28;45441;-87
2022/11/22 06:18:11;;;;;;;0.40;0.40;;;12.90;61.40;;;;;;5092857;28;45336;-87
2022/11/22 06:20:38;;;;;;;0.40;0.40;;;12.90;61.40;;;;;;5092690;28;45197;-88
2022/11/22 06:23:05;;;;;;;0.52;0.52;;;12.90;61.40;;;;;;5092463;28;44900;-87
2022/11/22 06:25:33;;;;;;;1.85;0.80;;;12.90;61.40;;;;;;5092674;28;47289;-88
2022/11/22 06:28:00;;;;;;;0.82;0.60;;;12.90;61.40;;;;;;5091917;27;45265;-88
2022/11/22 06:30:27;;;;;;;0.65;0.45;;;12.90;61.40;;;;;;5092298;28;45397;-88
2022/11/22 06:32:54;;;;;;;1.13;0.60;;;12.90;61.40;;;;;;5092200;28;45451;-90
2022/11/22 06:35:21;;;;;;;2.72;0.55;;;12.90;61.40;;;;;;5091803;28;46459;-88
2022/11/22 06:37:49;;;;;;;1.63;0.50;;;12.90;61.40;;;;;;5092294;28;45378;-88
2022/11/22 06:40:17;;;;;;;1.55;0.80;;;12.90;61.40;;;;;;5091793;28;45229;-88
2022/11/22 06:42:46;;;;;;;1.95;0.60;;;12.90;61.40;;;;;;5092467;28;45500;-88
2022/11/22 06:45:12;;;;;;;1.67;0.70;;;12.90;61.40;;;;;;5091895;28;45485;-88
2022/11/22 06:47:39;;;;;;;1.02;0.50;;;12.90;61.40;;;;;;5092420;28;45331;-89
2022/11/22 06:50:07;;;;;;;0.80;0.73;;;12.90;61.40;;;;;;5091754;28;45356;-89
2022/11/22 06:52:34;;;;;;;0.50;0.50;;;12.90;61.40;;;;;;5091907;28;45118;-88
2022/11/22 06:55:01;;;;;;;1.48;0.60;;;12.90;61.40;;;;;;5091678;28;45789;-88
2022/11/22 06:57:28;;;;;;;1.17;0.60;;;12.90;61.40;;;;;;5091087;28;45384;-87
2022/11/22 06:59:56;;;;;;;0.60;0.60;;;12.90;61.40;;;;;;5090554;28;45332;-88
2022/11/22 07:02:23;;;;;;;1.35;0.82;;;12.80;61.40;;;;;;5091015;28;45273;-88
2022/11/22 07:04:50;;;;;;;0.95;0.50;;;12.90;61.40;;;;;;5091745;28;45564;-90
2022/11/22 07:07:17;;;;;;;2.10;0.73;;;12.90;61.40;;;;;;5090299;28;45217;-87
2022/11/22 07:09:44;;;;;;;1.45;0.68;;;12.90;61.40;;;;;;5090845;28;45299;-88
2022/11/22 07:12:10;;;;;;;3.47;0.70;;;12.90;61.30;;;;;;5091892;28;45280;-87
2022/11/22 07:14:37;;;;;;;1.15;0.65;;;12.90;61.30;;;;;;5090493;28;45581;-89
2022/11/22 07:17:06;;;;;;;1.65;0.80;;;12.90;61.30;;;;;;5090834;28;45201;-88
2022/11/22 07:19:33;;;;;;;2.97;0.80;;;12.90;61.30;;;;;;5090848;28;44707;-88
2022/11/22 07:22:00;;;;;;;1.42;0.77;;;12.90;61.30;;;;;;5091532;28;45450;-90
2022/11/22 07:24:27;;;;;;;2.35;0.57;;;12.90;61.30;;;;;;5090278;28;45465;-87
2022/11/22 07:26:54;;;;;;;2.22;0.80;;;12.80;61.30;;;;;;5089636;27;45208;-89
2022/11/22 07:29:21;;;;;;;2.20;0.65;;;12.80;61.30;;;;;;5090515;28;45208;-88
2022/11/22 07:31:48;;;;;;;0.93;0.88;;;12.80;61.20;;;;;;5089714;28;45403;-86
2022/11/22 07:34:16;;;;;;;1.40;1.00;;;12.80;61.30;;;;;;5089019;28;45241;-87
2022/11/22 07:36:43;;;;;;;1.25;0.90;;;12.80;62.10;;;;;;5089436;28;45394;-86
2022/11/22 07:39:10;;;;;;;1.00;0.60;;;12.80;61.40;;;;;;5089548;28;45276;-86
2022/11/22 07:41:37;;;;;;;1.00;0.90;;;12.80;61.40;;;;;;5089786;28;45542;-87
2022/11/22 07:44:04;;;;;;;2.72;0.80;;;12.80;61.40;;;;;;5089245;28;46322;-87
2022/11/22 07:46:32;;;;;;;2.80;1.20;;;12.80;61.50;;;;;;5088826;28;45308;-87
2022/11/22 07:48:59;;;;;;;2.35;0.95;;;12.80;61.40;;;;;;5088457;28;45289;-87
2022/11/22 07:51:27;;;;;;;2.25;0.90;;;12.80;61.50;;;;;;5089170;28;45182;-87
2022/11/22 07:53:54;;;;;;;1.27;0.88;;;12.80;61.50;;;;;;5089110;28;45642;-87
2022/11/22 07:56:21;;;;;;;2.38;1.08;;;12.80;61.50;;;;;;5089506;28;45396;-88
2022/11/22 07:58:48;;;;;;;2.30;1.00;;;12.80;61.50;;;;;;5089414;28;45386;-87
2022/11/22 08:01:16;;;;;;;3.20;1.35;;;12.80;61.50;;;;;;5089271;28;45525;-87
2022/11/22 08:03:43;;;;;;;1.00;0.80;;;12.80;61.50;;;;;;5089889;28;47513;-86
2022/11/22 08:06:10;;;;;;;1.25;1.15;;;12.80;61.50;;;;;;5090335;28;45272;-86
2022/11/22 08:08:39;;;;;;;1.55;1.05;;;12.80;61.40;;;;;;5090211;28;45296;-86
2022/11/22 08:11:06;;;;;;;1.90;1.30;;;12.80;61.50;;;;;;5090827;28;45192;-87
2022/11/22 08:13:33;;;;;;;1.52;1.20;;;12.80;61.50;;;;;;5089880;28;46967;-86
2022/11/22 08:16:02;;;;;;;3.15;1.27;;;12.80;61.40;;;;;;5090040;28;45327;-87
2022/11/22 08:18:29;;;;;;;2.08;1.40;;;12.80;61.30;;;;;;5089281;28;45240;-87
2022/11/22 08:21:03;;;;;;;2.78;1.52;;;12.80;61.20;;;;;;5089176;28;45174;-86
2022/11/22 08:23:30;;;;;;;1.58;1.33;;;12.80;61.20;;;;;;5088542;28;46593;-87
2022/11/22 08:25:59;;;;;;;2.53;1.25;;;12.80;61.20;;;;;;5088001;28;45261;-86
2022/11/22 08:28:26;;;;;;;1.65;1.33;;;12.80;61.20;;;;;;5088112;28;45362;-87
2022/11/22 08:30:58;;;;;;;1.77;1.30;;;12.80;61.20;;;;;;5088563;28;45395;-87
2022/11/22 08:33:25;;;;;;;1.02;1.00;;;12.80;61.20;;;;;;5088568;28;45273;-87
2022/11/22 08:35:52;;;;;;;2.63;1.42;;;12.80;61.10;;;;;;5088042;28;45307;-87
2022/11/22 08:38:18;;;;;;;3.75;1.65;;;12.80;61.10;;;;;;5088402;27;45387;-86
2022/11/22 08:40:45;;;;;;;1.58;1.30;;;12.80;61.10;;;;;;5088517;28;45478;-88
2022/11/22 08:43:14;;;;;;;1.65;1.15;;;12.90;61.10;;;;;;5088884;28;45721;-88
2022/11/22 08:45:40;;;;;;;2.30;1.33;;;12.90;61.00;;;;;;5088568;28;45365;-87
2022/11/22 08:48:07;;;;;;;2.20;1.20;;;12.90;60.90;;;;;;5088970;28;45283;-88
2022/11/22 08:50:34;;;;;;;2.28;1.50;;;12.90;60.90;;;;;;5090173;28;45188;-87
2022/11/22 08:53:01;;;;;;;2.78;1.33;;;12.90;60.90;;;;;;5088652;28;45217;-88
2022/11/22 08:55:28;;;;;;;3.03;1.27;;;12.90;60.80;;;;;;5088183;28;45876;-89
2022/11/22 08:57:58;;;;;;;2.80;1.30;;;12.90;60.80;;;;;;5088964;28;45320;-86
2022/11/22 09:00:26;;;;;;;2.40;1.35;;;12.90;60.80;;;;;;5089056;28;45224;-86
2022/11/22 09:02:53;;;;;;;2.13;1.52;;;12.90;60.80;;;;;;5088429;28;45719;-87
2022/11/22 09:05:20;;;;;;;2.65;1.63;;;12.90;60.80;;;;;;5088809;28;45368;-87
2022/11/22 09:07:47;;;;;;;3.85;1.48;;;13.00;60.80;;;;;;5088481;28;45517;-87
2022/11/22 09:10:14;;;;;;;2.53;1.63;;;13.00;60.70;;;;;;5090728;28;45454;-87
2022/11/22 09:12:44;;;;;;;5.15;1.88;;;13.00;60.70;;;;;;5091263;28;46643;-86
2022/11/22 09:15:11;;;;;;;4.80;1.77;;;13.00;60.70;;;;;;5090955;28;45356;-87
2022/11/22 09:17:39;;;;;;;1.65;1.38;;;13.00;60.70;;;;;;5091196;28;45300;-86
2022/11/22 09:20:07;;;;;;;3.40;1.60;;;13.00;60.70;;;;;;5090372;28;45212;-87
2022/11/22 09:22:34;;;;;;;3.47;1.73;;;13.00;60.70;;;;;;5089556;28;45453;-88
2022/11/22 09:25:01;;;;;;;1.92;1.40;;;13.00;60.60;;;;;;5088621;28;45319;-88
2022/11/22 09:27:28;;;;;;;3.75;1.67;;;13.00;60.60;;;;;;5087541;28;45252;-86
2022/11/22 09:29:55;;;;;;;4.07;1.95;;;13.00;60.60;;;;;;5087763;28;45370;-87
2022/11/22 09:32:22;;;;;;;2.10;1.50;;;13.00;60.60;;;;;;5087437;28;46900;-86
2022/11/22 09:34:50;;;;;;;3.17;1.90;;;13.00;60.70;;;;;;5087260;28;45249;-87
2022/11/22 09:37:18;;;;;;;3.03;1.60;;;13.00;60.70;;;;;;5087523;28;45273;-87
2022/11/22 09:39:45;;;;;;;1.65;1.33;;;13.00;60.70;;;;;;5087843;28;45211;-86
2022/11/22 09:42:37;;;;;;;5.57;1.40;;;13.00;60.70;;;;;;5087048;28;46640;-87
2022/11/22 09:45:25;;;;;;;2.78;1.40;;;13.00;60.70;;;;;;5087248;28;45407;-86
2022/11/22 09:47:56;;;;;;;2.90;1.70;;;13.00;60.70;;;;;;5087520;28;45272;-86
2022/11/22 09:50:26;;;;;;;3.60;1.73;;;13.00;60.70;;;;;;5090105;27;45452;-87
2022/11/22 09:52:55;;;;;;;2.92;1.73;;;13.00;61.40;;;;;;5090615;28;45696;-86
2022/11/22 09:55:23;;;;;;;2.55;1.50;;;13.00;60.70;;;;;;5090349;28;45283;-86
2022/11/22 09:57:52;;;;;;;2.33;1.38;;;13.00;60.80;;;;;;5090997;28;45192;-86
2022/11/22 10:00:20;;;;;;;2.53;1.38;;;13.00;60.70;;;;;;5091023;28;45193;-86
2022/11/22 10:02:50;;;;;;;2.45;1.60;;;13.00;60.70;;;;;;5090515;28;45465;-86
2022/11/22 10:05:19;;;;;;;3.70;1.70;;;13.00;60.70;;;;;;5090380;28;45206;-86
2022/11/22 10:07:49;;;;;;;1.90;1.48;;;13.00;60.70;;;;;;5090547;28;45348;-86
2022/11/22 10:10:19;;;;;;;3.30;1.60;;;13.00;60.80;;;;;;5090799;28;45237;-86
2022/11/22 10:12:48;;;;;;;2.63;1.65;;;13.00;60.70;;;;;;5089895;28;46798;-86
2022/11/22 10:15:29;;;;;;;4.07;1.40;;;13.00;60.80;;;;;;5090733;28;45755;-86
2022/11/22 10:17:57;;;;;;;4.03;1.30;;;13.00;60.80;;;;;;5090719;28;45260;-87
2022/11/22 10:20:24;;;;;;;2.60;1.77;;;13.00;60.80;;;;;;5090562;28;45283;-86
2022/11/22 10:22:52;;;;;;;3.08;1.30;;;13.00;60.80;;;;;;5090296;28;47017;-86
2022/11/22 10:25:20;;;;;;;2.25;1.52;;;13.00;61.50;;;;;;5090196;28;45245;-86
2022/11/22 10:27:49;;;;;;;4.82;1.52;;;13.00;60.80;;;;;;5090430;28;45234;-86
2022/11/22 10:30:18;;;;;;;1.73;1.63;;;13.00;60.70;;;;;;5090655;28;45449;-86
2022/11/22 10:32:59;;;;;;;2.35;1.50;;;13.00;60.70;;;;;;5090232;28;45724;-86
2022/11/22 10:35:36;;;;;;;2.75;1.55;;;13.00;60.70;;;;;;5090013;28;45189;-86
2022/11/22 10:38:12;;;;;;;2.58;1.70;;;13.10;60.70;;;;;;5090335;28;45240;-86
2022/11/22 10:40:41;;;;;;;3.03;1.42;;;13.10;60.60;;;;;;5090349;28;45189;-87
2022/11/22 10:43:28;;;;;;;2.47;1.58;;;13.10;60.60;;;;;;5089871;28;46860;-86
2022/11/22 10:45:59;;;;;;;2.42;1.65;;;13.10;60.60;;;;;;5089817;28;45382;-86
2022/11/22 10:48:27;;;;;;;2.10;1.48;;;13.10;60.60;;;;;;5090250;28;45196;-87
2022/11/22 10:50:58;;;;;;;1.35;1.20;;;13.10;60.60;;;;;;5090112;28;45300;-86
2022/11/22 10:53:39;;;;;;;1.73;1.55;;;13.10;60.50;;;;;;5089638;28;47074;-86
2022/11/22 10:56:08;;;;;;;2.65;1.48;;;13.10;60.40;;;;;;5089609;28;45395;-86
2022/11/22 10:58:40;;;;;;;1.92;1.50;;;13.10;60.50;;;;;;5089915;28;45245;-86
2022/11/22 11:01:10;;;;;;;2.83;1.52;;;13.10;60.50;;;;;;5088794;27;45252;-86
2022/11/22 11:03:38;;;;;;;2.40;1.30;;;13.10;60.50;;;;;;5089576;28;45797;-86
2022/11/22 11:06:08;;;;;;;2.17;1.45;;;13.20;61.20;;;;;;5089584;28;45311;-85
2022/11/22 11:08:38;;;;;;;1.50;1.40;;;13.20;60.60;;;;;;5090054;28;45182;-85
2022/11/22 11:11:05;;;;;;;2.42;1.35;;;13.20;60.50;;;;;;5089369;28;45329;-84
2022/11/22 11:13:34;;;;;;;4.65;2.35;;;13.20;60.50;;;;;;5088654;28;45386;-86
2022/11/22 11:16:03;;;;;;;2.28;1.42;;;13.20;60.50;;;;;;5088726;28;45540;-87
2022/11/22 11:18:32;;;;;;;3.03;1.95;;;13.20;60.40;;;;;;5088536;28;45295;-88
2022/11/22 11:20:59;;;;;;;1.60;1.35;;;13.30;60.80;;;;;;5089269;28;45269;-86
2022/11/22 11:23:26;;;;;;;3.28;1.73;;;13.30;60.50;;;;;;5089398;28;46652;-87
2022/11/22 11:25:54;;;;;;;1.50;1.40;;;13.30;60.50;;;;;;5089151;28;45252;-86
2022/11/22 11:28:22;;;;;;;3.50;1.67;;;13.30;60.50;;;;;;5081545;28;45323;-86
2022/11/22 11:30:51;;;;;;;2.85;1.63;;;13.30;60.40;;;;;;5069288;28;45420;-88
2022/11/22 11:33:20;;;;;;;1.63;1.52;;;13.30;60.50;;;;;;5088437;28;47332;-86
2022/11/22 11:35:47;;;;;;;2.22;1.55;;;13.30;60.40;;;;;;5073943;28;45262;-85
2022/11/22 11:38:34;;;;;;;4.65;1.50;;;13.30;60.40;;;;;;5068556;28;45179;-85
2022/11/22 11:41:17;;;;;;;2.75;1.55;;;13.30;60.40;;;;;;5070786;28;45185;-85
2022/11/22 11:43:44;;;;;;;2.25;1.48;;;13.30;60.70;;;;;;5087857;27;45694;-85
2022/11/22 11:46:15;;;;;;;3.95;1.35;;;13.30;60.40;;;;;;5087059;27;45478;-85
2022/11/22 11:48:42;;;;;;;2.60;1.42;;;13.30;60.60;;;;;;5088620;28;45119;-86
2022/11/22 11:51:17;;;;;;;4.70;1.33;;;13.30;60.60;;;;;;5088740;28;45573;-86
2022/11/22 11:53:51;;;;;;;2.42;1.60;;;13.30;60.70;;;;;;5088361;28;45406;-85
2022/11/22 11:56:21;;;;;;;1.80;1.23;;;13.30;60.60;;;;;;5088362;28;45191;-86
2022/11/22 11:58:51;;;;;;;2.35;1.50;;;13.30;60.70;;;;;;5088517;28;45304;-85
2022/11/22 12:01:19;;;;;;;1.73;1.30;;;13.30;60.80;;;;;;5088925;28;45533;-85
2022/11/22 12:03:51;;;;;;;1.30;1.20;;;13.30;60.70;;;;;;5087947;28;46687;-85
2022/11/22 12:06:18;;;;;;;3.25;1.52;;;13.30;60.70;;;;;;5088188;28;45244;-86
2022/11/22 12:08:45;;;;;;;1.95;1.20;;;13.30;60.70;;;;;;5088471;28;45202;-86
2022/11/22 12:11:14;;;;;;;1.30;1.20;;;13.30;60.70;;;;;;5088427;28;45443;-87
2022/11/22 12:13:43;;;;;;;2.90;1.48;;;13.30;60.70;;;;;;5087815;28;45375;-85
2022/11/22 12:16:14;;;;;;;1.58;1.13;;;13.30;60.80;;;;;;5088172;28;45265;-86
2022/11/22 12:18:44;;;;;;;1.88;1.33;;;13.30;60.70;;;;;;5088391;28;45269;-85
2022/11/22 12:21:18;;;;;;;1.33;1.00;;;13.30;60.80;;;;;;5088059;28;45474;-86
2022/11/22 12:23:48;;;;;;;2.35;1.42;;;13.30;61.50;;;;;;5088211;28;47005;-86
2022/11/22 12:26:14;;;;;;;2.38;1.23;;;13.30;60.80;;;;;;5087876;28;45324;-87
2022/11/22 12:28:43;;;;;;;3.03;1.38;;;13.30;60.80;;;;;;5086980;28;45503;-86
2022/11/22 12:31:14;;;;;;;2.05;1.50;;;13.30;60.80;;;;;;5088587;28;45562;-87
2022/11/22 12:33:41;;;;;;;2.17;1.40;;;13.30;60.80;;;;;;5087887;28;45614;-87
2022/11/22 12:36:11;;;;;;;1.30;1.20;;;13.30;60.80;;;;;;5087715;28;45272;-87
2022/11/22 12:38:39;;;;;;;2.10;0.98;;;13.30;60.90;;;;;;5088516;28;45308;-86
2022/11/22 12:41:09;;;;;;;1.95;1.30;;;13.30;60.80;;;;;;5088132;28;45277;-88
2022/11/22 12:43:38;;;;;;;2.00;1.08;;;13.30;60.80;;;;;;5087758;28;46425;-87
2022/11/22 12:46:08;;;;;;;1.40;1.25;;;13.30;60.80;;;;;;5087924;28;45360;-86
2022/11/22 12:48:38;;;;;;;1.38;1.15;;;13.30;60.70;;;;;;5087717;28;45207;-86
2022/11/22 12:51:07;;;;;;;1.40;1.20;;;13.30;60.80;;;;;;5087891;28;45280;-86
2022/11/22 12:53:35;;;;;;;1.45;1.13;;;13.30;60.70;;;;;;5087653;28;45580;-86
2022/11/22 12:56:06;;;;;;;1.30;1.00;;;13.30;60.80;;;;;;5087465;28;45308;-86
2022/11/22 12:58:36;;;;;;;2.28;1.20;;;13.40;60.80;;;;;;5087859;28;45264;-86
2022/11/22 13:01:09;;;;;;;1.50;1.25;;;13.40;60.80;;;;;;5087873;28;44792;-86
2022/11/22 13:03:37;;;;;;;2.65;1.20;;;13.40;60.70;;;;;;5087153;28;45866;-86